Tiempo atmosférico en la estación meteorológica de Vilafranca Del Penedès, Barcelona (174 m.)



Fecha
DESCASC
Temp. máxima en grados centígrados (hora)
DESCASC
Temp. mínima en grados centígrados (hora)
DESCASC
Temp. media en grados centígrados
DESCASC
Racha de viento máxima en m/sg (hora)
DESCASC
Velocidad máxima media en intervalos de 10 minutos(hora)
DESCASC
Precipitaciones diarias en mm
DESCASC
Precipitaciones de 00:00 a 06:00 en mm
DESCASC
Precipitaciones de 06:00 a 12:00 en mm
DESCASC
Precipitaciones de 12:00 a 18:00 en mm
DESCASC
Precipitaciones de 18:00 a 24:00 en mm
DESCASC
27-04-2019 22.1 (15:10) 6.2 (00:00) 14.2 7.5 (14:50) 3.61 (17:10) 0 0 0 0 0
23-05-2019 24.6 (13:10) 11.8 (07:20) 18.2 7.22 (13:10) 3.61 (13:40) 0 0 0 0 0
22-05-2019 24.2 (15:20) 11.4 (06:30) 17.8 8.06 (14:00) 3.89 (15:00) 0 0 0 0 0
21-05-2019 23.4 (14:20) 8.1 (05:50) 15.8 8.61 (15:40) 3.89 (15:30) 0 0 0 0 0
20-05-2019 22.1 (16:10) 6.8 (07:00) 14.5 7.22 (17:20) 3.89 (17:50) 0 0 0 0 0
18-05-2019 20.9 (17:40) 8.7 (00:00) 14.8 10 (18:10) 5 (17:40) 0.2 0.2 0 0 0
16-05-2019 20.3 (15:00) 6.8 (00:00) 13.5 8.33 (13:40) 4.17 (13:40) 0 0 0 0 0
15-05-2019 21 (13:30) 8.7 (00:00) 14.8 10 (16:40) 5 (16:00) 0 0 0 0 0
14-05-2019 22.4 (12:30) 7.1 (00:00) 14.7 11.39 (15:20) 5 (15:10) 0 0 0 0 0
13-05-2019 21.8 (12:40) 7.2 (00:00) 14.5 10.28 (14:40) 5 (13:10) 0 0 0 0 0
12-05-2019 23.9 (14:20) 6.9 (00:00) 15.4 7.22 (15:10) 3.61 (08:00) 0 0 0 0 0
11-05-2019 23 (13:00) 13 (00:00) 18 8.61 (15:00) 4.17 (15:00) 0 0 0 0 0
09-05-2019 22.6 (15:40) 13.4 (00:00) 18 10.28 (18:10) 4.72 (18:40) 0 0 0 0 0
07-05-2019 16.5 (13:30) 7.5 (00:00) 12 5.28 (12:50) 2.78 (12:40) 0 0 0 0 0
06-05-2019 18 (17:40) 6.9 (00:00) 12.5 7.5 (15:00) 3.61 (18:20) 0 0 0 0 0
05-05-2019 21.3 (17:40) 6.6 (00:00) 13.9 9.17 (11:50) 3.89 (15:20) 0 0 0 0 0
04-05-2019 21.8 (15:40) 5.2 (00:00) 13.5 9.44 (18:10) 4.72 (18:30) 0 0 0 0 0
02-05-2019 21.3 (13:00) 10.2 (06:50) 15.7 8.89 (14:30) 3.89 (13:40) 0 0 0 0 0
01-05-2019 20.7 (14:00) 11.7 (00:00) 16.2 8.61 (18:00) 4.17 (17:10) 0 0 0 0 0
30-04-2019 19.9 (14:20) 12.3 (00:00) 16.1 8.06 (16:40) 4.72 (16:40) 0 0 0 0 0
29-04-2019 19.2 (15:40) 12.4 (00:00) 15.8 6.39 (17:40) 3.33 (17:40) 0 0 0 0 0
28-04-2019 18.8 (13:20) 6.4 (00:00) 12.6 9.72 (13:50) 5 (14:00) 0 0 0 0 0
26-04-2019 21.7 (16:40) 7.7 (00:00) 14.7 10.56 (11:50) 5.28 (11:10) 0 0 0 0 0
03-05-2019 13.3 (17:00) 9.9 (00:00) 11.6 5.83 (20:40) 3.33 (20:40) 10 0 4.8 4.8 0.4
08-05-2019 21.6 (15:10) 14.4 (00:00) 18 8.61 (13:10) 5.56 (13:10) 0.6 0 0 0 0.6
10-05-2019 26.8 (14:10) 11.7 (00:00) 19.2 6.39 (15:50) 3.61 (17:10) 1 0 0 0 1
17-05-2019 17.8 (17:40) 11.2 (00:00) 14.5 6.39 (13:00) 3.33 (13:00) 10 0.4 6.8 0 2.8
19-05-2019 19.7 (14:00) 7.9 (00:00) 13.8 7.78 (15:30) 3.89 (15:00) 12.6 0 0 4 8.6

Gráficas

Temp. máximas Temp. mínimas Temp. medias Precipitaciones Rachas de viento máximas Velocidades máximas media en intervalos de 10 minutos

Datos horarios

Fecha y hora oficial Temperatura (ºC) Velocidad del viento (km/h) Dirección del viento Racha (km/h) Dirección de racha Precipitación (mm) Presión (hPa) Tendencia (hPa) Humedad (%)
2019-05-25 23:00:00 17.7 0 Calma 8 Sudoeste 0 -- -- 75
2019-05-25 22:00:00 18.5 4 Sudoeste 15 Sudoeste 0 -- -- 68
2019-05-25 21:00:00 19.9 9 Sudoeste 19 Sudoeste 0 -- -- 62
2019-05-25 20:00:00 22.1 7 Sudoeste 15 Sudoeste 0 -- -- 57
2019-05-25 19:00:00 23.7 5 Sur 17 Sudoeste 0 -- -- 55
2019-05-25 18:00:00 23.8 9 Sur 17 Sudoeste 0 -- -- 56
2019-05-25 17:00:00 23.4 2 Sudoeste 12 Oeste 0 -- -- 49
2019-05-25 16:00:00 22.2 3 Norte 10 Noroeste 0 -- -- 55
2019-05-25 15:00:00 21.1 4 Norte 12 Nordeste 0 -- -- 57
2019-05-25 14:00:00 20.2 5 Norte 12 Nordeste 0 -- -- 72
2019-05-25 13:00:00 18.9 9 Nordeste 15 Nordeste 0 -- -- 72
2019-05-25 12:00:00 18.4 7 Norte 16 Nordeste 0 -- -- 76
2019-05-25 11:00:00 17.1 10 Nordeste 18 Nordeste 0 -- -- 83
2019-05-25 10:00:00 16.1 4 Nordeste 8 Norte 0 -- -- 91
2019-05-25 09:00:00 14.5 2 Noroeste 5 Norte 0 -- -- 99
2019-05-25 08:00:00 13.7 0 Calma 4 Este 0 -- -- 100
2019-05-25 07:00:00 13.4 0 Calma 4 Sudeste 0.2 -- -- 100
2019-05-25 06:00:00 13.4 0 Calma 2 Sudoeste 0.2 -- -- 100
2019-05-25 05:00:00 13.4 0 Calma 5 Sudoeste 0.2 -- -- 99
2019-05-25 04:00:00 13.4 3 Sudoeste 4 Sudoeste 0.6 -- -- 99
2019-05-25 03:00:00 13.4 0 Calma 2 Sudeste 1 -- -- 99
2019-05-25 02:00:00 13.4 0 Calma 4 Noroeste 0.8 -- -- 99
2019-05-25 01:00:00 13.4 0 Calma 5 Norte 0.6 -- -- 99
2019-05-25 00:00:00 13.3 3 Norte 4 Norte 0.2 -- -- 99
2019-05-24 23:00:00 13.2 0 Calma 4 Norte 1.2 -- -- 98
2019-05-24 22:00:00 13.1 0 Calma 4 Nordeste 1 -- -- 97
2019-05-24 21:00:00 13.3 3 Nordeste 7 Este 1 -- -- 97
2019-05-24 20:00:00 13.5 3 Este 17 Este 1.6 -- -- 97
2019-05-24 19:00:00 14 8 Sudeste 21 Sudeste 0.6 -- -- 95
2019-05-24 18:00:00 15 4 Sudeste 11 Sudoeste 5.6 -- -- 95
2019-05-24 17:00:00 16.2 4 Sudeste 12 Este 0.6 -- -- 92
2019-05-24 16:00:00 16.5 2 Sudeste 7 Sur 0 -- -- 91
2019-05-24 15:00:00 16.1 3 Sur 14 Sur 0.6 -- -- 92
2019-05-24 14:00:00 15.5 6 Sudoeste 11 Sudoeste 1.4 -- -- 96
2019-05-24 13:00:00 15 0 Calma 13 Sudoeste 5 -- -- 97
2019-05-24 12:00:00 15.5 0 Calma 9 Nordeste 3 -- -- 95
2019-05-24 11:00:00 15.5 4 Norte 8 Norte 0.6 -- -- 96
2019-05-24 10:00:00 15.6 0 Calma 5 Sudoeste 0 -- -- 95
2019-05-24 09:00:00 15.1 0 Calma 9 Norte 0 -- -- 96
2019-05-24 08:00:00 14.6 0 Calma 9 Nordeste 1 -- -- 97
2019-05-24 07:00:00 14.4 3 Sur 11 Sudoeste 1 -- -- 96
2019-05-24 06:00:00 14.9 0 Calma 3 Norte 1.6 -- -- 95
2019-05-24 05:00:00 15.1 0 Calma 7 Este 0 -- -- 94
2019-05-24 04:00:00 14.8 0 Calma 6 Norte 0 -- -- 92
2019-05-24 03:00:00 15.2 0 Calma 4 Nordeste 0 -- -- 94
2019-05-24 02:00:00 15.2 0 Calma 4 Norte 0 -- -- 92
2019-05-24 01:00:00 15.1 0 Calma 5 Norte 0 -- -- 93
2019-05-24 00:00:00 15.4 0 Calma 5 Este 0 -- -- 90
2019-05-23 23:00:00 16.2 0 Calma 8 Este 0 -- -- 89
2019-05-23 22:00:00 17 5 Sudeste 9 Este 0 -- -- 86
2019-05-23 21:00:00 18.1 0 Calma 9 Sudoeste 0 -- -- 78
2019-05-23 20:00:00 19 4 Sur 17 Oeste 0 -- -- 76
2019-05-23 19:00:00 19.6 4 Sur 15 Sur 0 -- -- 75
2019-05-23 18:00:00 20.2 7 Sur 22 Sur 0 -- -- 74
2019-05-23 17:00:00 21.5 11 Sudoeste 25 Sudoeste 0 -- -- 66
2019-05-23 16:00:00 22.8 8 Sur 22 Sudoeste 0 -- -- 63
2019-05-23 15:00:00 24 6 Sur 21 Sur 0 -- -- 58
2019-05-23 14:00:00 24.5 6 Sur 26 Sudoeste 0 -- -- 54
2019-05-23 13:00:00 24.4 9 Sur 22 Sudoeste 0 -- -- 52
2019-05-23 12:00:00 23.6 8 Sur 21 Sudoeste 0 -- -- 52
2019-05-23 11:00:00 21.9 5 Sur 13 Sur 0 -- -- 55
2019-05-23 10:00:00 19.4 4 Sur 8 Sur 0 -- -- 57
2019-05-23 09:00:00 15.1 3 Noroeste 6 Nordeste 0 -- -- 81
2019-05-23 08:00:00 12.3 0 Calma 6 Noroeste 0 -- -- 100
2019-05-23 07:00:00 12.2 3 Norte 7 Nordeste 0 -- -- 99
2019-05-23 06:00:00 12.1 0 Calma 8 Noroeste 0 -- -- 100
2019-05-23 05:00:00 12.8 4 Norte 7 Noroeste 0 -- -- 99
2019-05-23 04:00:00 13.5 2 Noroeste 7 Noroeste 0 -- -- 98
2019-05-23 03:00:00 14.4 3 Noroeste 9 Oeste 0 -- -- 95
2019-05-23 02:00:00 15.3 4 Sudoeste 8 Sudoeste 0 -- -- 95
2019-05-23 01:00:00 14.9 0 Calma 4 Sur 0 -- -- 91
2019-05-23 00:00:00 15.3 0 Calma 6 Sudoeste 0 -- -- 89
2019-05-22 23:00:00 15.9 0 Calma 5 Sudeste 0 -- -- 65
2019-05-22 22:00:00 17.2 2 Sudeste 9 Sur 0 -- -- 62
2019-05-22 21:00:00 18.9 3 Sur 15 Sudoeste 0 -- -- 54
2019-05-22 20:00:00 20.8 8 Sur 24 Sudoeste 0 -- -- 47
2019-05-22 19:00:00 22.2 10 Sur 24 Sur 0 -- -- 46
2019-05-22 18:00:00 22.6 9 Sur 23 Sudoeste 0 -- -- 52
2019-05-22 17:00:00 23.3 9 Sur 24 Sudoeste 0 -- -- 53
2019-05-22 16:00:00 23.8 11 Sudoeste 25 Sudoeste 0 -- -- 50
2019-05-22 15:00:00 23.5 14 Sudoeste 23 Sudoeste 0 -- -- 51
2019-05-22 14:00:00 23.1 13 Sudoeste 29 Sudoeste 0 -- -- 59
2019-05-22 13:00:00 23 6 Sur 15 Sur 0 -- -- 62
2019-05-22 12:00:00 22 8 Sudoeste 13 Oeste 0 -- -- 53
2019-05-22 11:00:00 20.2 3 Oeste 10 Este 0 -- -- 68
2019-05-22 10:00:00 18.1 4 Sudeste 8 Norte 0 -- -- 76
2019-05-22 09:00:00 14.8 4 Nordeste 9 Nordeste 0 -- -- 83
2019-05-22 08:00:00 13.3 0 Calma 6 Sudoeste 0 -- -- 90
2019-05-22 07:00:00 11.7 0 Calma 3 Norte 0 -- -- 96
2019-05-22 06:00:00 11.8 0 Calma 4 Norte 0 -- -- 93
2019-05-22 05:00:00 11.8 0 Calma 7 Nordeste 0 -- -- 94
2019-05-22 04:00:00 11.6 0 Calma 5 Norte 0 -- -- 92
2019-05-22 03:00:00 12.1 0 Calma 3 Sudoeste 0 -- -- 91
2019-05-22 02:00:00 12.8 0 Calma 6 Noroeste 0 -- -- 90
2019-05-22 01:00:00 13.4 3 Norte 8 Norte 0 -- -- 92
2019-05-22 00:00:00 14.4 0 Calma 8 Este 0 -- -- 91
2019-05-21 23:00:00 15.2 4 Este 9 Este 0 -- -- 86
2019-05-21 22:00:00 16 2 Sudeste 12 Este 0 -- -- 81
2019-05-21 21:00:00 17.3 3 Sur 16 Sur 0 -- -- 71
2019-05-21 20:00:00 19.2 9 Sur 20 Sur 0 -- -- 60
2019-05-21 19:00:00 21.1 8 Sur 24 Sudoeste 0 -- -- 46
2019-05-21 18:00:00 21.6 12 Sur 24 Sur 0 -- -- 45
2019-05-21 17:00:00 22.7 9 Sur 29 Sudoeste 0 -- -- 44
2019-05-21 16:00:00 23.2 12 Sur 31 Sudoeste 0 -- -- 43
2019-05-21 15:00:00 22.9 10 Sur 22 Oeste 0 -- -- 44
2019-05-21 14:00:00 23 8 Sur 22 Sudoeste 0 -- -- 45
2019-05-21 13:00:00 22.2 10 Sudoeste 20 Sudoeste 0 -- -- 51
2019-05-21 12:00:00 20.8 9 Sur 19 Sur 0 -- -- 64
2019-05-21 11:00:00 18.9 4 Sur 8 Sudoeste 0 -- -- 57
2019-05-21 10:00:00 16.2 3 Sur 5 Sur 0 -- -- 72
2019-05-21 09:00:00 12.4 0 Calma 5 Sudeste 0 -- -- 83
2019-05-21 08:00:00 10.1 2 Este 9 Nordeste 0 -- -- 93
2019-05-21 07:00:00 8.8 4 Norte 10 Nordeste 0 -- -- 96
2019-05-21 06:00:00 8.1 0 Calma 4 Norte 0 -- -- 96
2019-05-21 05:00:00 8.4 0 Calma 3 Noroeste 0 -- -- 95
2019-05-21 04:00:00 8.9 0 Calma 3 Norte 0 -- -- 95
2019-05-21 03:00:00 9.5 0 Calma 4 Este 0 -- -- 94
2019-05-21 02:00:00 10.1 0 Calma 4 Noroeste 0 -- -- 92
2019-05-21 01:00:00 11.1 0 Calma 5 Norte 0 -- -- 91
2019-05-21 00:00:00 12.2 0 Calma 5 Norte 0 -- -- 89
2019-05-20 23:00:00 13.4 0 Calma 7 Este 0 -- -- 87
2019-05-20 22:00:00 14.5 5 Sudeste 11 Este 0 -- -- 76
2019-05-20 21:00:00 16.5 3 Sur 16 Sudoeste 0 -- -- 57
2019-05-20 20:00:00 18.3 7 Sur 22 Sudoeste 0 -- -- 48
2019-05-20 19:00:00 19 9 Sur 22 Sudoeste 0 -- -- 53
2019-05-20 18:00:00 19.6 12 Sudoeste 26 Sur 0 -- -- 55
2019-05-20 17:00:00 21.8 6 Sur 22 Sudoeste 0 -- -- 44
2019-05-20 16:00:00 21.9 8 Sur 23 Sudoeste 0 -- -- 49
2019-05-20 15:00:00 21.5 9 Sudoeste 20 Oeste 0 -- -- 50
2019-05-20 14:00:00 20.5 6 Sur 18 Este 0 -- -- 59
2019-05-20 13:00:00 19.5 3 Oeste 10 Sudeste 0 -- -- 52
2019-05-20 12:00:00 18.2 4 Este 15 Nordeste 0 -- -- 59
2019-05-20 11:00:00 16.9 6 Este 15 Este 0 -- -- 70
2019-05-20 10:00:00 14.4 3 Nordeste 15 Nordeste 0 -- -- 75
2019-05-20 09:00:00 11.6 6 Nordeste 14 Nordeste 0 -- -- 89
2019-05-20 08:00:00 8 0 Calma 4 Noroeste 0 -- -- 100
2019-05-20 07:00:00 6.8 0 Calma 3 Noroeste 0 -- -- 99
2019-05-20 06:00:00 7.5 2 Nordeste 9 Nordeste 0 -- -- 99
2019-05-20 05:00:00 7.7 0 Calma 9 Nordeste 0 -- -- 99
2019-05-20 04:00:00 7.7 0 Calma 5 Norte 0 -- -- 99
2019-05-20 03:00:00 8.3 0 Calma 4 Noroeste 0 -- -- 98
2019-05-20 02:00:00 9 0 Calma 4 Este 0 -- -- 98
2019-05-20 01:00:00 9.4 0 Calma 7 Norte 0 -- -- 96
2019-05-20 00:00:00 10.1 2 Norte 5 Norte 0 -- -- 95
2019-05-19 23:00:00 11 3 Noroeste 18 Norte 2.2 -- -- 93
2019-05-19 22:00:00 11.6 5 Sudoeste 12 Oeste 0.8 -- -- 96
2019-05-19 21:00:00 11.6 0 Calma 9 Norte 0.2 -- -- 95
2019-05-19 20:00:00 12.1 4 Sudeste 12 Sudeste 3 -- -- 94
2019-05-19 19:00:00 12 4 Norte 17 Norte 2.4 -- -- 93
2019-05-19 18:00:00 13.8 4 Sudeste 17 Sudeste 0 -- -- 82
2019-05-19 17:00:00 14 5 Este 27 Este 0.8 -- -- 85
2019-05-19 16:00:00 12.6 9 Este 28 Este 1.8 -- -- 87
2019-05-19 15:00:00 16.6 14 Sudeste 27 Sudeste 1.4 -- -- 72
2019-05-19 14:00:00 19.7 6 Nordeste 24 Norte 0 -- -- 47
2019-05-19 13:00:00 18 3 Norte 23 Norte 0 -- -- 49
2019-05-19 12:00:00 16.6 10 Norte 22 Norte 0 -- -- 54
2019-05-19 11:00:00 15.4 6 Norte 18 Norte 0 -- -- 59
2019-05-19 10:00:00 12.8 4 Sudoeste 7 Sudoeste 0 -- -- 69
2019-05-19 09:00:00 11.2 0 Calma 5 Este 0 -- -- 77
2019-05-19 08:00:00 9.3 2 Sur 7 Sudoeste 0 -- -- 83
2019-05-19 07:00:00 7.9 0 Calma 8 Nordeste 0 -- -- 85
2019-05-19 06:00:00 8.3 0 Calma 5 Noroeste 0 -- -- 84
2019-05-19 05:00:00 9.2 2 Norte 17 Oeste 0 -- -- 79
2019-05-19 04:00:00 9.6 2 Noroeste 11 Sudoeste 0 -- -- 79
2019-05-19 03:00:00 10.1 6 Sudoeste 17 Oeste 0 -- -- 79
2019-05-19 02:00:00 10.4 3 Norte 7 Sudeste 0 -- -- 91
2019-05-19 01:00:00 11.4 3 Este 8 Norte 0 -- -- 89
2019-05-19 00:00:00 12.2 5 Norte 22 Nordeste 0 -- -- 87
2019-05-18 23:00:00 13.3 6 Norte 18 Norte 0 -- -- 82
2019-05-18 22:00:00 14.7 2 Sudeste 15 Sudoeste 0 -- -- 70
2019-05-18 21:00:00 15.8 8 Sur 23 Sur 0 -- -- 65
2019-05-18 20:00:00 18 10 Sur 26 Sudoeste 0 -- -- 57
2019-05-18 19:00:00 18.3 13 Sudoeste 36 Oeste 0 -- -- 50
2019-05-18 18:00:00 20.8 14 Oeste 36 Sudoeste 0 -- -- 32
2019-05-18 17:00:00 20 13 Oeste 29 Oeste 0 -- -- 32
2019-05-18 16:00:00 20.1 11 Oeste 30 Sudoeste 0 -- -- 31
2019-05-18 15:00:00 20.5 9 Oeste 26 Sudoeste 0 -- -- 30
2019-05-18 14:00:00 19.2 8 Oeste 22 Noroeste 0 -- -- 37
2019-05-18 13:00:00 18.8 9 Sudoeste 18 Oeste 0 -- -- 53
2019-05-18 12:00:00 17.5 4 Oeste 13 Sudoeste 0 -- -- 60
2019-05-18 11:00:00 15.3 6 Norte 18 Nordeste 0 -- -- 62
2019-05-18 10:00:00 13.5 9 Norte 21 Nordeste 0 -- -- 72
2019-05-18 09:00:00 11.7 8 Nordeste 15 Norte 0 -- -- 76
2019-05-18 08:00:00 10 7 Norte 12 Nordeste 0 -- -- 86
2019-05-18 07:00:00 8.8 4 Nordeste 9 Norte 0 -- -- 91
2019-05-18 06:00:00 9.5 0 Calma 6 Noroeste 0 -- -- 91
2019-05-18 05:00:00 10.1 3 Norte 8 Oeste 0 -- -- 91
2019-05-18 04:00:00 11.1 0 Calma 8 Oeste 0 -- -- 92
2019-05-18 03:00:00 12 4 Sudoeste 11 Sudoeste 0 -- -- 94
2019-05-18 02:00:00 11.8 4 Sudoeste 12 Sudoeste 0 -- -- 93
2019-05-18 01:00:00 12.2 3 Sur 8 Sudoeste 0.2 -- -- 97
2019-05-18 00:00:00 12.2 0 Calma 7 Este 0.8 -- -- 96
2019-05-17 23:00:00 12.4 3 Sudeste 6 Sudeste 0.4 -- -- 95
2019-05-17 22:00:00 12.5 0 Calma 9 Sudeste 0 -- -- 92
2019-05-17 21:00:00 12.6 7 Sudeste 15 Sudeste 1.2 -- -- 91
2019-05-17 20:00:00 14.1 3 Sudeste 13 Sur 0.4 -- -- 85
2019-05-17 19:00:00 15.7 6 Sudeste 17 Sudeste 0 -- -- 73
2019-05-17 18:00:00 17.6 3 Sudeste 10 Sudeste 0 -- -- 64
2019-05-17 17:00:00 16.8 4 Este 14 Sudeste 0 -- -- 63
2019-05-17 16:00:00 16.2 7 Norte 18 Nordeste 0 -- -- 64
2019-05-17 15:00:00 15.1 4 Norte 18 Norte 0 -- -- 70
2019-05-17 14:00:00 14.7 8 Norte 21 Norte 0 -- -- 75
2019-05-17 13:00:00 13.5 12 Norte 23 Nordeste 0 -- -- 82
2019-05-17 12:00:00 11.8 6 Norte 21 Norte 0.4 -- -- 90
2019-05-17 11:00:00 11.5 7 Norte 14 Norte 2.2 -- -- 92
2019-05-17 10:00:00 12.7 3 Oeste 6 Noroeste 2.4 -- -- 96
2019-05-17 09:00:00 12.7 4 Norte 19 Norte 1.6 -- -- 96
2019-05-17 08:00:00 12.8 7 Norte 16 Norte 0 -- -- 94
2019-05-17 07:00:00 13 4 Norte 10 Nordeste 0.2 -- -- 95
2019-05-17 06:00:00 13.2 4 Nordeste 11 Nordeste 0.4 -- -- 92
2019-05-17 05:00:00 13.1 0 Calma 5 Este 0 -- -- 91
2019-05-17 04:00:00 13.2 0 Calma 6 Este 0 -- -- 92
2019-05-17 03:00:00 13.7 3 Sudeste 8 Este 0 -- -- 91
2019-05-17 02:00:00 14.4 2 Este 9 Sudeste 0 -- -- 90
2019-05-17 01:00:00 14.7 2 Sudeste 14 Este 0 -- -- 88
2019-05-17 00:00:00 14.4 6 Sudeste 13 Sudeste 0 -- -- 85
2019-05-16 23:00:00 14.2 4 Sudeste 9 Sudeste 0 -- -- 85
2019-05-16 22:00:00 14.4 2 Sudeste 5 Sudeste 0 -- -- 83
2019-05-16 21:00:00 15.2 3 Sudeste 15 Sudoeste 0 -- -- 77
2019-05-16 20:00:00 17 8 Sudoeste 18 Sudoeste 0 -- -- 59
2019-05-16 19:00:00 16.7 6 Sur 18 Sur 0 -- -- 67
2019-05-16 18:00:00 17.1 7 Sur 22 Sudoeste 0 -- -- 72
2019-05-16 17:00:00 16.8 9 Sur 24 Sudoeste 0 -- -- 77
2019-05-16 16:00:00 18.4 9 Sur 26 Sudoeste 0 -- -- 70
2019-05-16 15:00:00 20.3 10 Sur 28 Sur 0 -- -- 62
2019-05-16 14:00:00 20 10 Sur 30 Sudoeste 0 -- -- 58
2019-05-16 13:00:00 20 10 Sur 24 Sudoeste 0 -- -- 57
2019-05-16 12:00:00 19.4 6 Sur 20 Sudoeste 0 -- -- 55
2019-05-16 11:00:00 17.8 10 Sudoeste 22 Sudoeste 0 -- -- 48
2019-05-16 10:00:00 15.9 6 Sudoeste 13 Sudoeste 0 -- -- 51
2019-05-16 09:00:00 11.7 2 Nordeste 8 Este 0 -- -- 57
2019-05-16 08:00:00 8.2 2 Este 7 Este 0 -- -- 74
2019-05-16 07:00:00 6.8 0 Calma 3 Norte 0 -- -- 78
2019-05-16 06:00:00 7 0 Calma 2 Norte 0 -- -- 80
2019-05-16 05:00:00 7.3 0 Calma 4 Este 0 -- -- 79
2019-05-16 04:00:00 7.7 0 Calma -- -- 0 -- -- 77
2019-05-16 03:00:00 8.3 0 Calma -- -- 0 -- -- 75
2019-05-16 02:00:00 9.2 0 Calma -- -- 0 -- -- 74
2019-05-16 01:00:00 10.2 0 Calma 4 Noroeste 0 -- -- 69
2019-05-16 00:00:00 11 0 Calma 4 Noroeste 0 -- -- 65
2019-05-15 23:00:00 12 0 Calma 6 Sudoeste 0 -- -- 60
2019-05-15 22:00:00 13.4 2 Este 13 Sudeste 0 -- -- 53
2019-05-15 21:00:00 14.5 5 Sudeste 21 Este 0 -- -- 53
2019-05-15 20:00:00 15.9 10 Sudeste 21 Sudeste 0 -- -- 52
2019-05-15 19:00:00 17.1 10 Sudeste 24 Sudeste 0 -- -- 56
2019-05-15 18:00:00 17 11 Sudeste 31 Este 0 -- -- 60
2019-05-15 17:00:00 18 17 Sudeste 36 Este 0 -- -- 59
2019-05-15 16:00:00 19.2 18 Sudeste 34 Sudeste 0 -- -- 57
2019-05-15 15:00:00 20.4 12 Sudeste 29 Sudeste 0 -- -- 49
2019-05-15 14:00:00 20.8 8 Sudeste 27 Este 0 -- -- 44
2019-05-15 13:00:00 20.6 12 Sudeste 24 Sudeste 0 -- -- 47
2019-05-15 12:00:00 20.7 8 Sudeste 28 Este 0 -- -- 44
2019-05-15 11:00:00 19.3 10 Sudeste 22 Sudeste 0 -- -- 49
2019-05-15 10:00:00 16.9 4 Sudeste 9 Nordeste 0 -- -- 63
2019-05-15 09:00:00 13.3 3 Norte 10 Nordeste 0 -- -- 80
2019-05-15 08:00:00 10.7 2 Norte 7 Norte 0 -- -- 92
2019-05-15 07:00:00 8.7 0 Calma 3 Norte 0 -- -- 94
2019-05-15 06:00:00 9.1 0 Calma 5 Norte 0 -- -- 94
2019-05-15 05:00:00 9.7 0 Calma 3 Sudoeste 0 -- -- 95
2019-05-15 04:00:00 10.2 0 Calma 2 Sur 0 -- -- 94
2019-05-15 03:00:00 11.1 0 Calma 5 Norte 0 -- -- 93
2019-05-15 02:00:00 11.5 0 Calma 6 Noroeste 0 -- -- 92
2019-05-15 01:00:00 12.5 0 Calma 5 Norte 0 -- -- 89
2019-05-15 00:00:00 13.9 3 Sudeste 10 Sudoeste 0 -- -- 90
2019-05-14 23:00:00 14.4 3 Sur 11 Sur 0 -- -- 88
2019-05-14 22:00:00 15 3 Sur 12 Sur 0 -- -- 84
2019-05-14 21:00:00 16.1 5 Sur 17 Sudoeste 0 -- -- 74
2019-05-14 20:00:00 17.9 6 Sur 22 Sur 0 -- -- 63
2019-05-14 19:00:00 19.7 9 Sur 25 Sudoeste 0 -- -- 57
2019-05-14 18:00:00 20.4 12 Sur 33 Sudoeste 0 -- -- 53
2019-05-14 17:00:00 20.9 14 Sur 37 Sudoeste 0 -- -- 52
2019-05-14 16:00:00 20.9 17 Sur 41 Sudoeste 0 -- -- 51
2019-05-14 15:00:00 21.9 13 Sur 32 Sudoeste 0 -- -- 48
2019-05-14 14:00:00 21.7 12 Sur 28 Sudoeste 0 -- -- 48
2019-05-14 13:00:00 22.3 12 Sur 28 Sudoeste 0 -- -- 37
2019-05-14 12:00:00 22.1 12 Sur 22 Sudoeste 0 -- -- 35
2019-05-14 11:00:00 21 5 Sur 13 Sur 0 -- -- 39
2019-05-14 10:00:00 17.4 3 Nordeste 10 Nordeste 0 -- -- 46
2019-05-14 09:00:00 12.7 3 Este 8 Este 0 -- -- 68
2019-05-14 08:00:00 9.5 3 Nordeste 8 Nordeste 0 -- -- 86
2019-05-14 07:00:00 7.1 0 Calma 5 Sudoeste 0 -- -- 90
2019-05-14 06:00:00 7.6 3 Norte 7 Norte 0 -- -- 89
2019-05-14 05:00:00 8 0 Calma 4 Oeste 0 -- -- 90
2019-05-14 04:00:00 8.4 0 Calma 5 Norte 0 -- -- 88
2019-05-14 03:00:00 9 0 Calma 5 Norte 0 -- -- 85
2019-05-14 02:00:00 10 0 Calma 6 Noroeste 0 -- -- 83
2019-05-14 01:00:00 11.3 4 Noroeste 11 Sudoeste 0 -- -- 79
2019-05-14 00:00:00 13.2 7 Sudoeste 14 Sur 0 -- -- 77
2019-05-13 23:00:00 13.5 3 Sudoeste 12 Sudoeste 0 -- -- 75
2019-05-13 22:00:00 14.6 6 Sudoeste 18 Sudoeste 0 -- -- 72
2019-05-13 21:00:00 15.5 5 Sur 23 Sudoeste 0 -- -- 68
2019-05-13 20:00:00 17.4 9 Sudoeste 25 Sudoeste 0 -- -- 59
2019-05-13 19:00:00 18.7 10 Sur 22 Sudoeste 0 -- -- 54
2019-05-13 18:00:00 20.1 5 Sur 15 Sur 0 -- -- 51
2019-05-13 17:00:00 20.2 6 Sur 21 Este 0 -- -- 50
2019-05-13 16:00:00 19.7 9 Sudeste 35 Este 0 -- -- 54
2019-05-13 15:00:00 19.5 15 Sudeste 37 Sudeste 0 -- -- 59
2019-05-13 14:00:00 19.8 18 Sudeste 36 Este 0 -- -- 62
2019-05-13 13:00:00 21.4 14 Sudeste 30 Sudeste 0 -- -- 56
2019-05-13 12:00:00 20.1 6 Norte 17 Nordeste 0 -- -- 36
2019-05-13 11:00:00 18.6 8 Norte 24 Nordeste 0 -- -- 38
2019-05-13 10:00:00 16.4 12 Nordeste 22 Norte 0 -- -- 50
2019-05-13 09:00:00 13.3 8 Nordeste 22 Nordeste 0 -- -- 63
2019-05-13 08:00:00 8.9 3 Norte 5 Norte 0 -- -- 85
2019-05-13 07:00:00 7.3 2 Norte 8 Nordeste 0 -- -- 87
2019-05-13 06:00:00 7.2 0 Calma 5 Norte 0 -- -- 86
2019-05-13 05:00:00 7.9 0 Calma 5 Norte 0 -- -- 85
2019-05-13 04:00:00 8.6 2 Noroeste 6 Noroeste 0 -- -- 81
2019-05-13 03:00:00 9.1 2 Nordeste 5 Norte 0 -- -- 85
2019-05-13 02:00:00 9.6 0 Calma 7 Norte 0 -- -- 83
2019-05-13 01:00:00 10.8 0 Calma 4 Sudeste 0 -- -- 83
2019-05-13 00:00:00 12.2 0 Calma 6 Sudoeste 0 -- -- 76
2019-05-12 23:00:00 13.4 5 Oeste 10 Oeste 0 -- -- 74
2019-05-12 22:00:00 14.2 0 Calma 11 Sudeste 0 -- -- 72
2019-05-12 21:00:00 15.6 4 Sudeste 18 Sudeste 0 -- -- 68
2019-05-12 20:00:00 17.3 9 Sudeste 20 Sudeste 0 -- -- 58
2019-05-12 19:00:00 18.8 9 Sudeste 22 Este 0 -- -- 55
2019-05-12 18:00:00 20.8 8 Sudeste 22 Sudeste 0 -- -- 45
2019-05-12 17:00:00 22.5 8 Sur 23 Este 0 -- -- 42
2019-05-12 16:00:00 22.2 9 Sudeste 26 Sudeste 0 -- -- 42
2019-05-12 15:00:00 23.4 10 Sudeste 25 Este 0 -- -- 36
2019-05-12 14:00:00 23.4 6 Sudeste 23 Sudeste 0 -- -- 36
2019-05-12 13:00:00 21.4 4 Norte 15 Nordeste 0 -- -- 32
2019-05-12 12:00:00 19.9 3 Norte 14 Nordeste 0 -- -- 34
2019-05-12 11:00:00 17.7 5 Norte 13 Norte 0 -- -- 43
2019-05-12 10:00:00 15.5 6 Norte 18 Nordeste 0 -- -- 50
2019-05-12 09:00:00 13.1 8 Nordeste 20 Nordeste 0 -- -- 58
2019-05-12 08:00:00 10.8 13 Nordeste 23 Norte 0 -- -- 64
2019-05-12 07:00:00 8.4 7 Nordeste 13 Nordeste 0 -- -- 79
2019-05-12 06:00:00 7 0 Calma 9 Nordeste 0 -- -- 91
2019-05-12 05:00:00 7.9 0 Calma 5 Norte 0 -- -- 93
2019-05-12 04:00:00 9.6 0 Calma 3 Norte 0 -- -- 94
2019-05-12 03:00:00 11.1 0 Calma 5 Este 0 -- -- 94
2019-05-12 02:00:00 11.9 3 Sudeste 5 Sudeste 0 -- -- 94
2019-05-12 01:00:00 12.4 0 Calma 5 Sur 0 -- -- 93
2019-05-12 00:00:00 13.2 0 Calma 8 Sudoeste 0 -- -- 89
2019-05-11 23:00:00 14.3 3 Sur 10 Sudoeste 0 -- -- 86
2019-05-11 22:00:00 15.3 4 Sur 10 Este 0 -- -- 82
2019-05-11 21:00:00 16.1 3 Sudeste 21 Este 0 -- -- 81
2019-05-11 20:00:00 17.5 9 Sudeste 22 Sudeste 0 -- -- 76
2019-05-11 19:00:00 19.3 7 Sudeste 23 Este 0 -- -- 68
2019-05-11 18:00:00 19.9 10 Sudeste 24 Sudeste 0 -- -- 69
2019-05-11 17:00:00 21.4 8 Sudeste 21 Sur 0 -- -- 61
2019-05-11 16:00:00 22.5 7 Sur 30 Sudeste 0 -- -- 58
2019-05-11 15:00:00 22.5 15 Sudeste 31 Sudeste 0 -- -- 57
2019-05-11 14:00:00 22.5 9 Sudeste 29 Este 0 -- -- 58
2019-05-11 13:00:00 23 6 Sur 17 Sudoeste 0 -- -- 55
2019-05-11 12:00:00 21.1 7 Sur 19 Sudoeste 0 -- -- 60
2019-05-11 11:00:00 20.7 10 Sudoeste 22 Sudoeste 0 -- -- 61
2019-05-11 10:00:00 19.8 7 Sur 14 Sudoeste 0 -- -- 65
2019-05-11 09:00:00 16.3 0 Calma 6 Nordeste 0 -- -- 81
2019-05-11 08:00:00 13.7 0 Calma 6 Este 0 -- -- 95
2019-05-11 07:00:00 13 0 Calma 4 Sudeste 0 -- -- 93
2019-05-11 06:00:00 13.9 2 Norte 7 Nordeste 0 -- -- 91
2019-05-11 05:00:00 14.6 0 Calma 10 Norte 0 -- -- 92
2019-05-11 04:00:00 15.5 6 Norte 12 Norte 0 -- -- 92
2019-05-11 03:00:00 15.5 4 Norte 10 Norte 0 -- -- 95
2019-05-11 02:00:00 15.7 4 Norte 10 Norte 0 -- -- 95
2019-05-11 01:00:00 16.7 3 Norte 5 Noroeste 0 -- -- 94
2019-05-11 00:00:00 16.7 0 Calma 5 Noroeste 0 -- -- 95
2019-05-10 23:00:00 16.9 0 Calma 7 Noroeste 0 -- -- 93
2019-05-10 22:00:00 17.4 0 Calma 5 Este 0 -- -- 92
2019-05-10 21:00:00 17.6 3 Este 9 Este 0.6 -- -- 88
2019-05-10 20:00:00 18.8 4 Sudoeste 13 Oeste 0.4 -- -- 78
2019-05-10 19:00:00 19.7 3 Sur 17 Sudoeste 0 -- -- 69
2019-05-10 18:00:00 21 6 Sur 22 Sudoeste 0 -- -- 58
2019-05-10 17:00:00 24 8 Sur 22 Sudoeste 0 -- -- 48
2019-05-10 16:00:00 25 10 Sur 23 Sur 0 -- -- 43
2019-05-10 15:00:00 25.9 6 Sur 20 Sudoeste 0 -- -- 44
2019-05-10 14:00:00 26.6 6 Sur 21 Sudoeste 0 -- -- 42
2019-05-10 13:00:00 25.5 10 Sudoeste 22 Sur 0 -- -- 43
2019-05-10 12:00:00 24.4 5 Sudoeste 15 Sudoeste 0 -- -- 45
2019-05-10 11:00:00 23.4 5 Sur 14 Sudoeste 0 -- -- 46
2019-05-10 10:00:00 21 3 Norte 12 Nordeste 0 -- -- 46
2019-05-10 09:00:00 17.9 5 Nordeste 12 Nordeste 0 -- -- 53
2019-05-10 08:00:00 13 0 Calma 5 Nordeste 0 -- -- 78
2019-05-10 07:00:00 11.8 0 Calma 4 Norte 0 -- -- 81
2019-05-10 06:00:00 11.9 0 Calma 8 Norte 0 -- -- 80
2019-05-10 05:00:00 12.2 0 Calma 5 Noroeste 0 -- -- 80
2019-05-10 04:00:00 13.5 0 Calma 7 Sudeste 0 -- -- 77
2019-05-10 03:00:00 14.1 4 Norte 9 Norte 0 -- -- 74
2019-05-10 02:00:00 14.5 4 Norte 7 Noroeste 0 -- -- 72
2019-05-10 01:00:00 15.7 0 Calma 6 Este 0 -- -- 67
2019-05-10 00:00:00 15.8 5 Sudoeste 21 Sudoeste 0 -- -- 66
2019-05-09 23:00:00 16.4 8 Sur 21 Sudoeste 0 -- -- 62
2019-05-09 22:00:00 16.7 2 Sur 18 Sudoeste 0 -- -- 52
2019-05-09 21:00:00 17.9 11 Sudoeste 24 Sudoeste 0 -- -- 48
2019-05-09 20:00:00 18.6 14 Sudoeste 28 Sudoeste 0 -- -- 47
2019-05-09 19:00:00 19.2 16 Sudoeste 37 Sudoeste 0 -- -- 47
2019-05-09 18:00:00 20.5 15 Sur 33 Sudoeste 0 -- -- 40
2019-05-09 17:00:00 21.6 14 Sur 28 Sudoeste 0 -- -- 38
2019-05-09 16:00:00 22.6 8 Sudeste 30 Este 0 -- -- 38
2019-05-09 15:00:00 22.1 9 Sudeste 30 Este 0 -- -- 44
2019-05-09 14:00:00 21.1 7 Sudeste 32 Este 0 -- -- 58
2019-05-09 13:00:00 22 9 Este 23 Este 0 -- -- 54
2019-05-09 12:00:00 21.6 9 Sudeste 18 Sudeste 0 -- -- 49
2019-05-09 11:00:00 20.6 5 Este 17 Nordeste 0 -- -- 49
2019-05-09 10:00:00 18.7 9 Norte 16 Norte 0 -- -- 35
2019-05-09 09:00:00 17 6 Noroeste 22 Oeste 0 -- -- 40
2019-05-09 08:00:00 16.4 7 Noroeste 23 Sudoeste 0 -- -- 41
2019-05-09 07:00:00 14.8 4 Sur 18 Este 0 -- -- 44
2019-05-09 06:00:00 14.1 3 Sur 25 Oeste 0 -- -- 51
2019-05-09 05:00:00 15.5 12 Sudoeste 22 Sudoeste 0 -- -- 47
2019-05-09 04:00:00 16.3 8 Oeste 27 Oeste 0 -- -- 47
2019-05-09 03:00:00 15.1 7 Sudoeste 13 Sudoeste 0 -- -- 62
2019-05-09 02:00:00 14.8 5 Sudoeste 9 Sudoeste 0 -- -- 83
2019-05-09 01:00:00 16.4 4 Sudoeste 16 Oeste 0 -- -- 78
2019-05-09 00:00:00 17.1 7 Oeste 17 Oeste 0.6 -- -- 76
2019-05-08 23:00:00 16.8 2 Noroeste 10 Sudoeste 0 -- -- 84
2019-05-08 22:00:00 18.1 0 Calma 13 Sudoeste 0 -- -- 79
2019-05-08 21:00:00 19.2 8 Sudoeste 14 Sudoeste 0 -- -- 74
2019-05-08 20:00:00 20.6 8 Sudoeste 16 Sudoeste 0 -- -- 68
2019-05-08 19:00:00 20.6 4 Sudoeste 18 Sudoeste 0 -- -- 73
2019-05-08 18:00:00 20.4 7 Sur 20 Sudoeste 0 -- -- 70
2019-05-08 17:00:00 20.7 12 Sudoeste 26 Sudoeste 0 -- -- 70
2019-05-08 16:00:00 20.9 12 Sudoeste 23 Sudoeste 0 -- -- 70
2019-05-08 15:00:00 21.5 11 Sur 25 Sur 0 -- -- 68
2019-05-08 14:00:00 18.7 12 Sur 31 Sudoeste 0 -- -- 81
2019-05-08 13:00:00 19.8 19 Sudoeste 31 Sudoeste 0 -- -- 75
2019-05-08 12:00:00 19.1 7 Sur 18 Sudoeste 0 -- -- 78
2019-05-08 11:00:00 16.9 5 Sur 16 Sur 0 -- -- 88
2019-05-08 10:00:00 16.1 6 Sur 19 Sudoeste 0 -- -- 89
2019-05-08 09:00:00 15.5 7 Sur 16 Sudoeste 0 -- -- 91
2019-05-08 08:00:00 14.8 3 Sur 13 Sudoeste 0 -- -- 96
2019-05-08 07:00:00 14.5 8 Sudoeste 15 Sudoeste 0 -- -- 97
2019-05-08 06:00:00 14.5 4 Sudoeste 6 Oeste 0 -- -- 96
2019-05-08 05:00:00 14.4 0 Calma 6 Sur 0 -- -- 96
2019-05-08 04:00:00 14.5 2 Sur 12 Sur 0 -- -- 97
2019-05-08 03:00:00 14.5 8 Sudoeste 16 Sur 0 -- -- 97
2019-05-08 02:00:00 14.5 4 Sudoeste 15 Sudoeste 0 -- -- 96
2019-05-08 01:00:00 14.5 6 Sudoeste 14 Sudoeste 0 -- -- 95
2019-05-08 00:00:00 14.6 5 Sur 15 Sudoeste 0 -- -- 95
2019-05-07 23:00:00 14.7 3 Sur 17 Sudoeste 0 -- -- 93
2019-05-07 22:00:00 14.8 4 Sur 12 Sur 0 -- -- 92
2019-05-07 21:00:00 14.9 8 Sudoeste 17 Sudoeste 0 -- -- 91
2019-05-07 20:00:00 15.2 4 Sur 16 Sur 0 -- -- 89
2019-05-07 19:00:00 15.7 5 Sur 15 Sur 0 -- -- 86
2019-05-07 18:00:00 15.8 4 Sur 13 Sur 0 -- -- 88
2019-05-07 17:00:00 15 4 Sur 17 Sudoeste 0 -- -- 94
2019-05-07 16:00:00 15 4 Sur 15 Sudoeste 0 -- -- 92
2019-05-07 15:00:00 15.4 5 Sur 15 Sur 0 -- -- 89
2019-05-07 14:00:00 16.1 5 Sur 13 Sur 0 -- -- 84
2019-05-07 13:00:00 16 6 Sur 19 Sudoeste 0 -- -- 81
2019-05-07 12:00:00 15.8 7 Sudoeste 15 Sudoeste 0 -- -- 81
2019-05-07 11:00:00 14.3 4 Sudoeste 9 Sudoeste 0 -- -- 81
2019-05-07 10:00:00 12.7 0 Calma 5 Norte 0 -- -- 74
2019-05-07 09:00:00 11.7 2 Este 5 Este 0 -- -- 77
2019-05-07 08:00:00 10 2 Norte 6 Norte 0 -- -- 77
2019-05-07 07:00:00 9.3 0 Calma 5 Sudeste 0 -- -- 79
2019-05-07 06:00:00 8.8 0 Calma 4 Noroeste 0 -- -- 74
2019-05-07 05:00:00 8.6 0 Calma 4 Noroeste 0 -- -- 79
2019-05-07 04:00:00 7.6 0 Calma 6 Norte 0 -- -- 79
2019-05-07 03:00:00 8.3 2 Norte 5 Norte 0 -- -- 83
2019-05-07 02:00:00 8.4 0 Calma 4 Nordeste 0 -- -- 80
2019-05-07 01:00:00 9.2 0 Calma 5 Norte 0 -- -- 78
2019-05-07 00:00:00 10.4 0 Calma 3 Sudeste 0 -- -- 77
2019-05-06 23:00:00 11.2 0 Calma 9 Sudeste 0 -- -- 70
2019-05-06 22:00:00 12.5 3 Sudeste 9 Sur 0 -- -- 67
2019-05-06 21:00:00 14 3 Sur 13 Sudoeste 0 -- -- 70
2019-05-06 20:00:00 15.7 9 Sudoeste 19 Sudoeste 0 -- -- 58
2019-05-06 19:00:00 16.4 9 Sudoeste 24 Sudoeste 0 -- -- 59
2019-05-06 18:00:00 17.9 8 Sur 21 Sudeste 0 -- -- 57
2019-05-06 17:00:00 17.7 7 Sudeste 22 Sudeste 0 -- -- 58
2019-05-06 16:00:00 16.9 8 Sudeste 26 Sudeste 0 -- -- 59
2019-05-06 15:00:00 17.4 9 Sudeste 27 Este 0 -- -- 57
2019-05-06 14:00:00 17.1 10 Sur 24 Sur 0 -- -- 56
2019-05-06 13:00:00 16.8 7 Sur 21 Sudeste 0 -- -- 58
2019-05-06 12:00:00 15.8 6 Sur 20 Sur 0 -- -- 60
2019-05-06 11:00:00 15.1 5 Sur 14 Sudoeste 0 -- -- 65
2019-05-06 10:00:00 13.9 4 Este 10 Este 0 -- -- 63
2019-05-06 09:00:00 10.4 3 Este 8 Este 0 -- -- 76
2019-05-06 08:00:00 8.1 0 Calma 6 Nordeste 0 -- -- 85
2019-05-06 07:00:00 6.9 0 Calma 3 Este 0 -- -- 87
2019-05-06 06:00:00 6.9 0 Calma 3 Este 0 -- -- 87
2019-05-06 05:00:00 7.2 0 Calma 5 Nordeste 0 -- -- 84
2019-05-06 04:00:00 8.3 0 Calma 3 Norte 0 -- -- 81
2019-05-06 03:00:00 8.8 0 Calma 12 Norte 0 -- -- 76
2019-05-06 02:00:00 9.2 4 Norte 8 Norte 0 -- -- 73
2019-05-06 01:00:00 9.7 3 Norte 9 Norte 0 -- -- 73
2019-05-06 00:00:00 10.7 4 Norte 10 Noroeste 0 -- -- 68
2019-05-05 23:00:00 12.1 5 Norte 12 Nordeste 0 -- -- 67
2019-05-05 22:00:00 13.3 4 Nordeste 26 Este 0 -- -- 64
2019-05-05 21:00:00 15.7 9 Este 18 Sudoeste 0 -- -- 53
2019-05-05 20:00:00 20.2 6 Oeste 23 Oeste 0 -- -- 22
2019-05-05 19:00:00 20.9 6 Oeste 29 Noroeste 0 -- -- 20
2019-05-05 18:00:00 21.1 8 Noroeste 26 Sudoeste 0 -- -- 22
2019-05-05 17:00:00 20.8 7 Oeste 32 Norte 0 -- -- 21
2019-05-05 16:00:00 20.7 9 Noroeste 33 Norte 0 -- -- 22
2019-05-05 15:00:00 20.4 10 Oeste 26 Noroeste 0 -- -- 21
2019-05-05 14:00:00 19.7 7 Norte 27 Norte 0 -- -- 21
2019-05-05 13:00:00 18.8 9 Noroeste 22 Noroeste 0 -- -- 22
2019-05-05 12:00:00 17.7 9 Norte 33 Norte 0 -- -- 20
2019-05-05 11:00:00 16.6 6 Noroeste 27 Norte 0 -- -- 27
2019-05-05 10:00:00 14.3 8 Norte 28 Noroeste 0 -- -- 29
2019-05-05 09:00:00 11.7 9 Norte 19 Oeste 0 -- -- 38
2019-05-05 08:00:00 9.4 5 Norte 13 Nordeste 0 -- -- 51
2019-05-05 07:00:00 8 4 Nordeste 27 Sudoeste 0 -- -- 66
2019-05-05 06:00:00 7.1 3 Este 6 Este 0 -- -- 85
2019-05-05 05:00:00 8.7 2 Sudoeste 6 Este 0 -- -- 78
2019-05-05 04:00:00 10.4 0 Calma 15 Nordeste 0 -- -- 70
2019-05-05 03:00:00 10.9 2 Nordeste 14 Nordeste 0 -- -- 70
2019-05-05 02:00:00 9.7 0 Calma 5 Sudoeste 0 -- -- 88
2019-05-05 01:00:00 10.7 2 Sur 8 Norte 0 -- -- 85
2019-05-05 00:00:00 11.5 4 Noroeste 11 Oeste 0 -- -- 81
2019-05-04 23:00:00 13.5 6 Sudoeste 17 Sudoeste 0 -- -- 66
2019-05-04 22:00:00 13.6 4 Sudeste 17 Sur 0 -- -- 72
2019-05-04 21:00:00 14.7 5 Sur 26 Sudoeste 0 -- -- 67
2019-05-04 20:00:00 16.6 15 Sur 32 Sudoeste 0 -- -- 56
2019-05-04 19:00:00 17.4 15 Sur 34 Sudoeste 0 -- -- 60
2019-05-04 18:00:00 18.8 12 Sur 30 Sur 0 -- -- 55
2019-05-04 17:00:00 20.3 10 Sur 31 Sudoeste 0 -- -- 52
2019-05-04 16:00:00 20.7 17 Sudoeste 29 Sudoeste 0 -- -- 42
2019-05-04 15:00:00 20.4 4 Sudoeste 21 Sudoeste 0 -- -- 38
2019-05-04 14:00:00 19.9 6 Noroeste 21 Sur 0 -- -- 42
2019-05-04 13:00:00 19.1 6 Oeste 16 Oeste 0 -- -- 47
2019-05-04 12:00:00 17.3 5 Este 13 Nordeste 0 -- -- 62
2019-05-04 11:00:00 14.8 4 Oeste 9 Norte 0 -- -- 66
2019-05-04 10:00:00 12.2 6 Nordeste 16 Nordeste 0 -- -- 76
2019-05-04 09:00:00 9.3 8 Nordeste 17 Nordeste 0 -- -- 95
2019-05-04 08:00:00 5.9 0 Calma 3 Nordeste 0 -- -- 100
2019-05-04 07:00:00 5.2 0 Calma 5 Noroeste 0 -- -- 100
2019-05-04 06:00:00 5.8 0 Calma 4 Norte 0 -- -- 100
2019-05-04 05:00:00 6.7 0 Calma 4 Norte 0 -- -- 99
2019-05-04 04:00:00 7.5 0 Calma 4 Noroeste 0 -- -- 99
2019-05-04 03:00:00 7.9 0 Calma 4 Nordeste 0 -- -- 98
2019-05-04 02:00:00 8.4 0 Calma 3 Noroeste 0 -- -- 97
2019-05-04 01:00:00 9.4 0 Calma 5 Sudeste 0 -- -- 97
2019-05-04 00:00:00 10 5 Sudoeste 8 Sudoeste 0 -- -- 97
2019-05-03 23:00:00 9.9 4 Norte 10 Norte 0 -- -- 96
2019-05-03 22:00:00 10.4 6 Nordeste 17 Norte 0.2 -- -- 95
2019-05-03 21:00:00 10.6 10 Norte 21 Norte 0 -- -- 93
2019-05-03 20:00:00 12 0 Calma 7 Sudoeste 0 -- -- 92
2019-05-03 19:00:00 12 5 Sudoeste 18 Sudoeste 0.2 -- -- 91
2019-05-03 18:00:00 12.3 4 Sur 12 Este 1.6 -- -- 90
2019-05-03 17:00:00 13.3 3 Sudeste 13 Sudeste 0.6 -- -- 89
2019-05-03 16:00:00 12.8 5 Sudeste 11 Sudeste 0.8 -- -- 91
2019-05-03 15:00:00 13.1 4 Nordeste 9 Nordeste 0 -- -- 86
2019-05-03 14:00:00 11.6 3 Norte 12 Norte 0.6 -- -- 95
2019-05-03 13:00:00 11.2 5 Nordeste 12 Nordeste 1.2 -- -- 94
2019-05-03 12:00:00 11.3 5 Norte 15 Nordeste 2 -- -- 94
2019-05-03 11:00:00 11.6 6 Norte 13 Norte 1.6 -- -- 92
2019-05-03 10:00:00 12.6 3 Nordeste 10 Sudoeste 1 -- -- 92
2019-05-03 09:00:00 12.7 0 Calma 5 Sudoeste 0 -- -- 90
2019-05-03 08:00:00 12.7 0 Calma 4 Norte 0.2 -- -- 87
2019-05-03 07:00:00 12.7 0 Calma 2 Nordeste 0 -- -- 80
2019-05-03 06:00:00 12.7 0 Calma 2 Norte 0 -- -- 80
2019-05-03 05:00:00 12.6 0 Calma 4 Noroeste 0 -- -- 80
2019-05-03 04:00:00 12.5 0 Calma 4 Sudeste 0 -- -- 81
2019-05-03 03:00:00 12.5 0 Calma 5 Norte 0 -- -- 82
2019-05-03 02:00:00 11.9 0 Calma -- -- 0 -- -- 83
2019-05-03 01:00:00 11.5 0 Calma 4 Oeste 0 -- -- 84
2019-05-03 00:00:00 12.2 0 Calma 6 Nordeste 0 -- -- 81
2019-05-02 23:00:00 13 2 Nordeste 12 Este 0 -- -- 81
2019-05-02 22:00:00 14.2 5 Este 14 Este 0 -- -- 78
2019-05-02 21:00:00 14.5 7 Sudeste 19 Este 0 -- -- 79
2019-05-02 20:00:00 15.5 8 Sudeste 24 Sudeste 0 -- -- 75
2019-05-02 19:00:00 16.4 7 Sudeste 20 Sudeste 0 -- -- 74
2019-05-02 18:00:00 17.1 6 Sudeste 27 Sudeste 0 -- -- 71
2019-05-02 17:00:00 18.3 7 Sudeste 22 Este 0 -- -- 64
2019-05-02 16:00:00 19.9 8 Sur 27 Este 0 -- -- 59
2019-05-02 15:00:00 20.4 11 Sudeste 32 Sudeste 0 -- -- 58
2019-05-02 14:00:00 20.5 14 Sudeste 31 Sudeste 0 -- -- 57
2019-05-02 13:00:00 21.3 11 Sudeste 21 Este 0 -- -- 54
2019-05-02 12:00:00 18.9 6 Norte 17 Nordeste 0 -- -- 48
2019-05-02 11:00:00 17.7 7 Norte 16 Nordeste 0 -- -- 56
2019-05-02 10:00:00 14.8 4 Norte 6 Norte 0 -- -- 78
2019-05-02 09:00:00 13.8 2 Noroeste 4 Norte 0 -- -- 84
2019-05-02 08:00:00 10.8 0 Calma 6 Norte 0 -- -- 86
2019-05-02 07:00:00 10.3 0 Calma 3 Norte 0 -- -- 93
2019-05-02 06:00:00 10.6 0 Calma 5 Noroeste 0 -- -- 87
2019-05-02 05:00:00 11.1 3 Norte 5 Noroeste 0 -- -- 90
2019-05-02 04:00:00 11.1 0 Calma 4 Noroeste 0 -- -- 89
2019-05-02 03:00:00 11.4 0 Calma 4 Norte 0 -- -- 94
2019-05-02 02:00:00 10.5 0 Calma 4 Norte 0 -- -- 95
2019-05-02 01:00:00 10.8 3 Norte 4 Noroeste 0 -- -- 93
2019-05-02 00:00:00 12.1 2 Noroeste 5 Sudeste 0 -- -- 92
2019-05-01 23:00:00 12.9 0 Calma 4 Sudeste 0 -- -- 90
2019-05-01 22:00:00 13.7 2 Sudeste 10 Sudoeste 0 -- -- 86
2019-05-01 21:00:00 14.8 4 Sur 15 Sur 0 -- -- 79
2019-05-01 20:00:00 16.1 6 Sur 21 Sudoeste 0 -- -- 69
2019-05-01 19:00:00 18.3 9 Sur 28 Sudoeste 0 -- -- 51
2019-05-01 18:00:00 19.2 13 Sur 31 Sudoeste 0 -- -- 52
2019-05-01 17:00:00 19.8 13 Sur 28 Sudoeste 0 -- -- 57
2019-05-01 16:00:00 19.9 9 Sur 29 Sudoeste 0 -- -- 55
2019-05-01 15:00:00 20.3 11 Sur 24 Sur 0 -- -- 55
2019-05-01 14:00:00 20.7 8 Sur 23 Sur 0 -- -- 55
2019-05-01 13:00:00 20.1 8 Sur 23 Sudoeste 0 -- -- 63
2019-05-01 12:00:00 18.2 8 Sudoeste 23 Sudoeste 0 -- -- 69
2019-05-01 11:00:00 17.6 10 Sudoeste 19 Sudoeste 0 -- -- 70
2019-05-01 10:00:00 16.3 7 Sur 16 Sudoeste 0 -- -- 80
2019-05-01 09:00:00 13.9 0 Calma 5 Oeste 0 -- -- 95
2019-05-01 08:00:00 12.8 0 Calma 4 Noroeste 0 -- -- 96
2019-05-01 07:00:00 11.9 2 Norte 5 Noroeste 0 -- -- 97
2019-05-01 06:00:00 11.8 3 Norte 5 Norte 0 -- -- 94
2019-05-01 05:00:00 12.1 0 Calma 3 Oeste 0 -- -- 94
2019-05-01 04:00:00 12.6 0 Calma 4 Sudeste 0 -- -- 96
2019-05-01 03:00:00 12.5 0 Calma 6 Sudoeste 0 -- -- 95
2019-05-01 02:00:00 12.8 0 Calma 5 Sudeste 0 -- -- 93
2019-05-01 01:00:00 12.8 0 Calma 4 Sudoeste 0 -- -- 93
2019-05-01 00:00:00 13.3 0 Calma 6 Sur 0 -- -- 91
2019-04-30 23:00:00 13.5 3 Sur 8 Sur 0 -- -- 92
2019-04-30 22:00:00 13.7 3 Sur 12 Sur 0 -- -- 89
2019-04-30 21:00:00 14.6 6 Sur 18 Sudoeste 0 -- -- 85
2019-04-30 20:00:00 15.9 9 Sur 23 Sur 0 -- -- 78
2019-04-30 19:00:00 17.1 9 Sur 23 Sudoeste 0 -- -- 73
2019-04-30 18:00:00 18 9 Sur 27 Sudoeste 0 -- -- 68
2019-04-30 17:00:00 18.6 14 Sur 29 Sudoeste 0 -- -- 66
2019-04-30 16:00:00 19.4 11 Sur 26 Sudoeste 0 -- -- 64
2019-04-30 15:00:00 19.7 10 Sur 27 Sudoeste 0 -- -- 65
2019-04-30 14:00:00 19.7 10 Sur 26 Sudoeste 0 -- -- 65
2019-04-30 13:00:00 18.7 8 Sur 22 Sudoeste 0 -- -- 69
2019-04-30 12:00:00 18 7 Sur 16 Sur 0 -- -- 73
2019-04-30 11:00:00 15.8 6 Sudoeste 16 Oeste 0 -- -- 79
2019-04-30 10:00:00 14.6 4 Sudoeste 8 Sudoeste 0 -- -- 87
2019-04-30 09:00:00 13.9 0 Calma 6 Sur 0 -- -- 90
2019-04-30 08:00:00 13.5 0 Calma 6 Este 0 -- -- 92
2019-04-30 07:00:00 13.3 2 Sur 6 Sudoeste 0 -- -- 93
2019-04-30 06:00:00 13.1 0 Calma 4 Sur 0 -- -- 93
2019-04-30 05:00:00 12.8 2 Sur 6 Sudoeste 0 -- -- 93
2019-04-30 04:00:00 12.4 2 Noroeste 8 Oeste 0 -- -- 90
2019-04-30 03:00:00 12.3 0 Calma 5 Noroeste 0 -- -- 91
2019-04-30 02:00:00 12.7 0 Calma 4 Norte 0 -- -- 94
2019-04-30 01:00:00 12.7 0 Calma 7 Sudoeste 0 -- -- 94
2019-04-30 00:00:00 13.4 4 Sudoeste 9 Sudoeste 0 -- -- 94
2019-04-29 23:00:00 13.1 4 Sudoeste 9 Sudoeste 0 -- -- 92
2019-04-29 22:00:00 13.6 3 Sur 13 Sur 0 -- -- 89
2019-04-29 21:00:00 14.8 3 Sur 12 Sudoeste 0 -- -- 78
2019-04-29 20:00:00 16.3 6 Sur 22 Sudoeste 0 -- -- 68
2019-04-29 19:00:00 17.5 9 Sur 22 Sudoeste 0 -- -- 67
2019-04-29 18:00:00 17.3 6 Sur 23 Sudoeste 0 -- -- 70
2019-04-29 17:00:00 17.9 6 Sur 20 Sur 0 -- -- 64
2019-04-29 16:00:00 19 8 Sur 23 Sudoeste 0 -- -- 60
2019-04-29 15:00:00 17.8 10 Sur 22 Sudoeste 0 -- -- 65
2019-04-29 14:00:00 17.3 7 Sur 15 Sudoeste 0 -- -- 68
2019-04-29 13:00:00 16.5 5 Sudeste 13 Sudeste 0 -- -- 67
2019-04-29 12:00:00 16.5 4 Sudoeste 11 Sudoeste 0 -- -- 68
2019-04-29 11:00:00 15.1 3 Oeste 6 Oeste 0 -- -- 73
2019-04-29 10:00:00 14 2 Este 5 Sudeste 0 -- -- 79
2019-04-29 09:00:00 13.4 0 Calma 5 Sudoeste 0 -- -- 83
2019-04-29 08:00:00 12.6 0 Calma 4 Oeste 0 -- -- 85
2019-04-29 07:00:00 12.4 2 Este 4 Sudeste 0 -- -- 86
2019-04-29 06:00:00 12.5 0 Calma 5 Sudeste 0 -- -- 87
2019-04-29 05:00:00 12.6 4 Sudeste 6 Sudeste 0 -- -- 88
2019-04-29 04:00:00 12.6 0 Calma 8 Sudoeste 0 -- -- 88
2019-04-29 03:00:00 12.7 3 Sudeste 12 Este 0 -- -- 88
2019-04-29 02:00:00 12.8 5 Sudeste 13 Este 0 -- -- 86
2019-04-29 01:00:00 12.9 3 Sudeste 17 Este 0 -- -- 85
2019-04-29 00:00:00 13.1 5 Este 17 Este 0 -- -- 84
2019-04-28 23:00:00 13 9 Este 17 Sudeste 0 -- -- 84
2019-04-28 22:00:00 12.9 6 Sudeste 23 Sudeste 0 -- -- 85
2019-04-28 21:00:00 13.1 10 Sudeste 22 Este 0 -- -- 83
2019-04-28 20:00:00 13.4 8 Sudeste 28 Este 0 -- -- 81
2019-04-28 19:00:00 13.9 14 Sudeste 29 Sudeste 0 -- -- 78
2019-04-28 18:00:00 15 11 Sudeste 25 Sudeste 0 -- -- 73
2019-04-28 17:00:00 15.5 12 Sudeste 33 Sudeste 0 -- -- 71
2019-04-28 16:00:00 16.5 14 Sudeste 32 Este 0 -- -- 68
2019-04-28 15:00:00 16.3 14 Sudeste 34 Sudeste 0 -- -- 69
2019-04-28 14:00:00 18.1 18 Sudeste 35 Sudeste 0 -- -- 64
2019-04-28 13:00:00 18.5 12 Sudeste 27 Este 0 -- -- 62
2019-04-28 12:00:00 17.3 4 Este 20 Nordeste 0 -- -- 44
2019-04-28 11:00:00 15.9 8 Nordeste 16 Nordeste 0 -- -- 48
2019-04-28 10:00:00 13.7 7 Norte 14 Norte 0 -- -- 55
2019-04-28 09:00:00 10.7 3 Nordeste 9 Nordeste 0 -- -- 73
2019-04-28 08:00:00 7.4 0 Calma 4 Sudeste 0 -- -- 95
2019-04-28 07:00:00 6.5 0 Calma 5 Oeste 0 -- -- 94
2019-04-28 06:00:00 6.8 0 Calma 4 Sudoeste 0 -- -- 93
2019-04-28 05:00:00 7.4 0 Calma 3 Noroeste 0 -- -- 91
2019-04-28 04:00:00 8.3 0 Calma 5 Norte 0 -- -- 90
2019-04-28 03:00:00 9 0 Calma 7 Noroeste 0 -- -- 87
2019-04-28 02:00:00 9.6 4 Norte 8 Norte 0 -- -- 84
2019-04-28 01:00:00 10.3 0 Calma 7 Norte 0 -- -- 84
2019-04-28 00:00:00 11.7 0 Calma 4 Noroeste 0 -- -- 81
2019-04-27 23:00:00 12.8 0 Calma 10 Sur 0 -- -- 77
2019-04-27 22:00:00 13.7 3 Sur 11 Sur 0 -- -- 71
2019-04-27 21:00:00 15 3 Sudeste 15 Sudoeste 0 -- -- 61
2019-04-27 20:00:00 16.7 10 Sur 22 Sur 0 -- -- 56
2019-04-27 19:00:00 18.7 8 Sur 24 Sudoeste 0 -- -- 47
2019-04-27 18:00:00 19.8 7 Sudeste 27 Sudoeste 0 -- -- 52
2019-04-27 17:00:00 21.5 9 Sur 22 Sudoeste 0 -- -- 42
2019-04-27 16:00:00 21.8 10 Sudoeste 21 Sudoeste 0 -- -- 39
2019-04-27 15:00:00 22 6 Sur 27 Este 0 -- -- 41
2019-04-27 14:00:00 20.9 6 Sudoeste 13 Sudoeste 0 -- -- 41
2019-04-27 13:00:00 18.8 6 Norte 17 Nordeste 0 -- -- 44
2019-04-27 12:00:00 17.5 8 Norte 19 Norte 0 -- -- 52
2019-04-27 11:00:00 16 6 Nordeste 14 Norte 0 -- -- 51
2019-04-27 10:00:00 13.4 3 Nordeste 8 Nordeste 0 -- -- 58
2019-04-27 09:00:00 10.7 5 Nordeste 9 Nordeste 0 -- -- 70
2019-04-27 08:00:00 7.7 0 Calma 9 Este 0 -- -- 89
2019-04-27 07:00:00 6.4 2 Norte 5 Norte 0 -- -- 92
2019-04-27 06:00:00 6.4 0 Calma 5 Noroeste 0 -- -- 91
2019-04-27 05:00:00 7 3 Norte 5 Norte 0 -- -- 88
2019-04-27 04:00:00 7.4 0 Calma -- -- 0 -- -- 88
2019-04-27 03:00:00 8.2 0 Calma 3 Noroeste 0 -- -- 85
2019-04-27 02:00:00 9.4 0 Calma 4 Noroeste 0 -- -- 85
2019-04-27 01:00:00 10.8 3 Norte 5 Norte 0 -- -- 81
2019-04-27 00:00:00 12.2 0 Calma 9 Este 0 -- -- 79
2019-04-26 23:00:00 13.5 3 Este 19 Sudeste 0 -- -- 74
2019-04-26 22:00:00 15.7 9 Este 25 Este 0 -- -- 64
2019-04-26 21:00:00 18.3 10 Sudoeste 26 Oeste 0 -- -- 33
2019-04-26 20:00:00 20.1 8 Oeste 29 Oeste 0 -- -- 31
2019-04-26 19:00:00 21.1 12 Oeste 29 Sudoeste 0 -- -- 33
2019-04-26 18:00:00 20.7 13 Oeste 32 Oeste 0 -- -- 36
2019-04-26 17:00:00 21.6 16 Oeste 38 Sudoeste 0 -- -- 35
2019-04-26 16:00:00 21.1 13 Oeste 30 Oeste 0 -- -- 36
2019-04-26 15:00:00 20.7 16 Oeste 34 Sudoeste 0 -- -- 38
2019-04-26 14:00:00 19.7 14 Oeste 33 Sudoeste 0 -- -- 39
2019-04-26 13:00:00 18.9 13 Oeste 36 Oeste 0 -- -- 41
2019-04-26 12:00:00 18.3 14 Sudoeste 38 Oeste 0 -- -- 41
2019-04-26 11:00:00 17.3 17 Oeste 35 Oeste 0 -- -- 42
2019-04-26 10:00:00 15.2 9 Oeste 30 Sudoeste 0 -- -- 48
2019-04-26 09:00:00 13.4 12 Oeste 33 Oeste 0 -- -- 52
2019-04-26 08:00:00 12.3 15 Sudoeste 30 Oeste 0 -- -- 55
2019-04-26 07:00:00 12.3 12 Oeste 27 Noroeste 0 -- -- 55
2019-04-26 06:00:00 11.6 8 Oeste 19 Sudoeste 0 -- -- 58
2019-04-26 05:00:00 11.6 4 Sudoeste 19 Sudoeste 0 -- -- 57
2019-04-26 04:00:00 7.9 2 Sur 18 Sudoeste 0 -- -- 77
2019-04-26 03:00:00 7.9 0 Calma 7 Norte 0 -- -- 78
2019-04-26 02:00:00 9 0 Calma 5 Sudoeste 0 -- -- 73
2019-04-26 01:00:00 11 0 Calma 7 Oeste 0 -- -- 66
2019-04-26 00:00:00 13 3 Oeste 23 Sudoeste 0 -- -- 57